Accueil
METAR-TAF:

Aéroports :

Bauru, São Paulo, Brésil

latitude: 22-19S, longitude: 049-04W, altitude: 590 m

Observation

Le bulletin a été fait il y a 2 heures et 50 minutes, à 21:00 UTC
Vent 2 kt de sud
Température 21°C
Humidité 56%
Pression 1019 hPa
Visibilité 10 km ou plus
pas de nuages en-dessous de 1500 mètres et pas de cumulonimbus.

METAR: SBBU 282100Z 17002KT CAVOK 21/12 Q1019

Heure: 20:50 (23:50 UTC)

Prévision

Le bulletin a été fait il y a 8 heures et 20 minutes, à 15:30 UTC
Prévision valable du 28 à 18 UTC au 29 à 06 UTC
Vent 5 kt de sud
Visibilité 10 km ou plus
pas de nuages en-dessous de 1500 mètres et pas de cumulonimbus.

TAF: SBBU 281530Z 2818/2906 18005KT CAVOK TX22/2818Z TN13/2905Z RMK PEB

METAR-TAF

Observations et prévisions météorologiques de plus de 4000 aéroports (messages METAR et TAF).

Les stations disponibles sont représentées par des disques jaunes et rouges sur la carte.

Passer la souris dessus pour voir le nom de la station.

Cliquer dessus pour voir les observations et prévisions météorologiques.

Pour changer de carte: cliquez sur les boutons verts avec une croix noire pour zoomer, sur le bouton vert avec un tiret pour effectuer un zoom arrière, ou sur les flèches vertes pour les cartes adjacentes.


METAR-TAF: